Time;durP1;ratioP1;P1;durP2;ratioP2;P2;SDS_P1;SDS_P2;PMS_P1;PMS_P2;Temp;Humidity;BMP_temperature;BMP_pressure;BME280_temperature;BME280_humidity;BME280_pressure;Samples;Min_cycle;Max_cycle;Signal;HPM_P1;HPM_P2
2020/12/31 00:00:01;;;;;;;0.50;0.50;;;3.90;99.90;;;;;;4990369;28;20221;-86
2020/12/31 00:02:27;;;;;;;0.50;0.50;;;3.90;99.90;;;;;;4990274;28;20237;-86
2020/12/31 00:04:53;;;;;;;0.50;0.50;;;3.90;99.90;;;;;;4990189;28;20606;-86
2020/12/31 00:07:20;;;;;;;0.50;0.50;;;3.90;99.90;;;;;;4990818;28;20199;-87
2020/12/31 00:09:47;;;;;;;0.50;0.50;;;3.90;99.90;;;;;;4990091;28;20569;-86
2020/12/31 00:12:14;;;;;;;0.50;0.50;;;5.00;99.90;;;;;;4990608;28;20260;-86
2020/12/31 00:14:40;;;;;;;0.50;0.50;;;3.80;99.90;;;;;;4990037;28;20670;-86
2020/12/31 00:17:09;;;;;;;0.50;0.50;;;3.90;99.90;;;;;;4990062;28;20285;-86
2020/12/31 00:19:44;;;;;;;0.50;0.50;;;3.90;99.90;;;;;;4990546;28;20569;-86
2020/12/31 00:22:10;;;;;;;0.50;0.50;;;3.90;99.90;;;;;;4990384;28;20205;-85
2020/12/31 00:24:37;;;;;;;0.50;0.50;;;3.90;99.90;;;;;;4990127;28;20230;-86
2020/12/31 00:27:05;;;;;;;0.50;0.50;;;4.00;99.90;;;;;;4989988;28;20264;-86
2020/12/31 00:29:31;;;;;;;0.50;0.50;;;3.90;99.90;;;;;;4990554;28;20207;-86
2020/12/31 00:32:02;;;;;;;0.50;0.50;;;3.90;99.90;;;;;;4990113;28;20209;-86
2020/12/31 00:34:28;;;;;;;0.50;0.50;;;3.90;99.90;;;;;;4990110;28;20214;-86
2020/12/31 00:37:03;;;;;;;0.50;0.50;;;3.90;99.90;;;;;;4990109;28;20221;-85
2020/12/31 00:39:31;;;;;;;0.50;0.50;;;3.90;99.90;;;;;;4989751;28;20194;-86
2020/12/31 00:41:58;;;;;;;0.50;0.50;;;3.90;99.90;;;;;;4990638;28;20210;-85
2020/12/31 00:44:25;;;;;;;0.50;0.50;;;3.90;99.90;;;;;;4989625;28;20206;-85
2020/12/31 00:46:51;;;;;;;0.50;0.50;;;3.80;99.90;;;;;;4989714;28;20199;-86
2020/12/31 00:49:19;;;;;;;0.50;0.50;;;3.90;99.90;;;;;;4990293;28;20206;-85
2020/12/31 00:51:45;;;;;;;0.50;0.50;;;4.20;99.90;;;;;;4989667;28;20307;-85
2020/12/31 00:54:11;;;;;;;0.50;0.50;;;3.90;99.90;;;;;;4990083;28;20241;-86
2020/12/31 00:56:40;;;;;;;0.50;0.50;;;3.90;99.90;;;;;;4990059;28;20229;-86
2020/12/31 00:59:09;;;;;;;0.50;0.50;;;3.90;99.90;;;;;;4989914;28;20210;-85
2020/12/31 01:01:36;;;;;;;0.50;0.50;;;3.70;99.90;;;;;;4992424;28;20208;-85
2020/12/31 01:04:03;;;;;;;0.50;0.50;;;3.90;99.90;;;;;;4995054;28;20210;-85
2020/12/31 01:06:36;;;;;;;0.50;0.50;;;4.00;99.90;;;;;;4995085;28;20210;-85
2020/12/31 01:09:06;;;;;;;0.50;0.50;;;3.90;99.90;;;;;;4994516;28;20575;-85
2020/12/31 01:11:32;;;;;;;0.50;0.50;;;3.90;99.90;;;;;;4993850;28;20206;-85
2020/12/31 01:13:58;;;;;;;0.50;0.50;;;3.80;99.90;;;;;;4993926;28;20210;-85
2020/12/31 01:16:27;;;;;;;0.50;0.50;;;3.90;99.90;;;;;;4993667;28;20231;-85
2020/12/31 01:18:54;;;;;;;0.50;0.50;;;3.90;99.90;;;;;;4993374;28;20210;-86
2020/12/31 01:21:20;;;;;;;0.50;0.50;;;4.00;99.90;;;;;;4993990;28;20206;-85
2020/12/31 01:23:46;;;;;;;0.50;0.50;;;4.40;99.90;;;;;;4993169;28;20245;-86
2020/12/31 01:26:28;;;;;;;0.50;0.50;;;4.00;99.90;;;;;;4994686;28;20207;-85
2020/12/31 01:28:54;;;;;;;0.50;0.50;;;4.00;99.90;;;;;;4993910;28;20724;-86
2020/12/31 01:31:22;;;;;;;0.50;0.50;;;4.00;99.90;;;;;;4988929;28;20202;-86
2020/12/31 01:34:00;;;;;;;0.50;0.50;;;4.00;99.90;;;;;;4992383;28;20245;-86
2020/12/31 01:36:33;;;;;;;0.52;0.52;;;3.90;99.90;;;;;;4992515;28;20780;-86
2020/12/31 01:39:05;;;;;;;0.50;0.50;;;3.90;99.90;;;;;;4992030;28;20202;-86
2020/12/31 01:41:34;;;;;;;0.50;0.50;;;4.00;99.90;;;;;;4991697;28;20206;-86
2020/12/31 01:44:05;;;;;;;0.50;0.50;;;3.80;99.90;;;;;;4991905;28;20297;-86
2020/12/31 01:46:32;;;;;;;0.50;0.50;;;4.40;99.90;;;;;;4991591;28;20700;-86
2020/12/31 01:49:00;;;;;;;0.50;0.50;;;3.90;99.90;;;;;;4990850;28;20709;-86
2020/12/31 01:51:26;;;;;;;0.50;0.50;;;3.90;99.90;;;;;;4991382;28;20253;-88
2020/12/31 01:53:56;;;;;;;0.60;0.60;;;3.80;99.90;;;;;;4991304;28;20662;-86
2020/12/31 01:56:38;;;;;;;0.50;0.50;;;3.80;99.90;;;;;;4990806;28;20256;-87
2020/12/31 01:59:04;;;;;;;0.50;0.50;;;3.80;99.90;;;;;;4991395;28;20212;-86
2020/12/31 02:01:30;;;;;;;0.50;0.50;;;3.70;99.90;;;;;;4991363;28;20245;-85
2020/12/31 02:03:58;;;;;;;0.50;0.50;;;3.60;99.90;;;;;;4991221;28;20439;-85
2020/12/31 02:06:27;;;;;;;0.52;0.52;;;3.60;99.90;;;;;;4991610;28;20202;-85
2020/12/31 02:08:54;;;;;;;0.60;0.60;;;3.60;99.90;;;;;;4991338;28;20225;-85
2020/12/31 02:11:22;;;;;;;0.50;0.50;;;3.60;99.90;;;;;;4991169;28;20199;-85
2020/12/31 02:13:49;;;;;;;0.57;0.57;;;3.50;99.90;;;;;;4989787;28;20587;-85
2020/12/31 02:16:16;;;;;;;0.50;0.50;;;3.50;99.90;;;;;;4991254;28;20570;-85
2020/12/31 02:18:50;;;;;;;0.50;0.50;;;3.50;99.90;;;;;;4990595;28;20591;-85
2020/12/31 02:21:18;;;;;;;0.50;0.50;;;3.40;99.90;;;;;;4990820;28;20207;-85
2020/12/31 02:23:45;;;;;;;0.50;0.50;;;3.40;99.90;;;;;;4989972;28;20561;-85
2020/12/31 02:26:12;;;;;;;0.50;0.50;;;3.30;99.90;;;;;;4990097;28;20620;-85
2020/12/31 02:28:38;;;;;;;0.50;0.50;;;3.30;99.90;;;;;;4991876;28;20202;-85
2020/12/31 02:31:06;;;;;;;0.50;0.50;;;3.20;99.90;;;;;;4992096;28;20203;-85
2020/12/31 02:33:32;;;;;;;0.50;0.50;;;3.20;99.90;;;;;;4992352;28;20257;-85
2020/12/31 02:35:58;;;;;;;0.50;0.50;;;3.20;99.90;;;;;;4991787;28;20756;-85
2020/12/31 02:38:25;;;;;;;0.50;0.50;;;3.10;99.90;;;;;;4992438;28;20560;-85
2020/12/31 02:40:52;;;;;;;0.50;0.50;;;3.10;99.90;;;;;;4991826;28;20230;-85
2020/12/31 02:43:18;;;;;;;0.60;0.60;;;3.10;99.90;;;;;;4991795;28;20206;-85
2020/12/31 02:45:44;;;;;;;0.50;0.50;;;3.00;99.90;;;;;;4991983;28;20210;-85
2020/12/31 02:48:11;;;;;;;0.50;0.50;;;3.00;99.90;;;;;;4991729;28;20210;-85
2020/12/31 02:50:37;;;;;;;0.50;0.50;;;3.00;99.90;;;;;;4991907;28;20217;-85
2020/12/31 02:53:03;;;;;;;0.50;0.50;;;3.00;99.90;;;;;;4991782;28;20206;-85
2020/12/31 02:55:32;;;;;;;0.50;0.50;;;3.90;99.90;;;;;;4991559;28;20206;-85
2020/12/31 02:57:59;;;;;;;0.50;0.50;;;2.90;99.90;;;;;;4991817;28;20272;-85
2020/12/31 03:00:25;;;;;;;0.55;0.55;;;2.90;99.90;;;;;;4991647;28;20654;-85
2020/12/31 03:02:51;;;;;;;0.50;0.50;;;2.90;99.90;;;;;;4991168;28;20242;-85
2020/12/31 03:05:18;;;;;;;0.50;0.50;;;2.80;99.90;;;;;;4991532;28;20206;-85
2020/12/31 03:07:44;;;;;;;0.50;0.50;;;2.80;99.90;;;;;;4991103;28;20206;-85
2020/12/31 03:10:10;;;;;;;0.50;0.50;;;2.70;99.90;;;;;;4991407;28;20202;-85
2020/12/31 03:12:37;;;;;;;0.50;0.50;;;2.70;99.90;;;;;;4991480;28;20206;-85
2020/12/31 03:15:07;;;;;;;0.60;0.60;;;2.70;99.90;;;;;;4990819;28;20643;-85
2020/12/31 03:17:34;;;;;;;0.50;0.50;;;2.70;99.90;;;;;;4991011;28;20230;-86
2020/12/31 03:20:00;;;;;;;0.50;0.50;;;2.60;99.90;;;;;;4991370;28;20712;-85
2020/12/31 03:22:26;;;;;;;0.55;0.55;;;2.60;99.90;;;;;;4991159;28;20561;-86
2020/12/31 03:24:55;;;;;;;0.50;0.50;;;2.60;99.90;;;;;;4991019;28;20261;-85
2020/12/31 03:27:21;;;;;;;0.55;0.55;;;2.70;99.90;;;;;;4991226;28;20665;-85
2020/12/31 03:29:47;;;;;;;0.50;0.50;;;2.60;99.90;;;;;;4990682;28;20202;-86
2020/12/31 03:32:14;;;;;;;0.50;0.50;;;3.40;99.90;;;;;;4991060;28;20206;-85
2020/12/31 03:34:40;;;;;;;0.50;0.50;;;2.60;99.90;;;;;;4990701;28;20202;-85
2020/12/31 03:37:07;;;;;;;0.52;0.52;;;2.60;99.90;;;;;;4990655;28;20728;-85
2020/12/31 03:39:33;;;;;;;0.50;0.50;;;2.50;99.90;;;;;;4991079;28;20736;-85
2020/12/31 03:41:59;;;;;;;0.50;0.50;;;2.50;99.90;;;;;;4990397;28;20498;-85
2020/12/31 03:44:26;;;;;;;0.52;0.52;;;2.50;99.90;;;;;;4990822;28;20681;-85
2020/12/31 03:46:52;;;;;;;0.50;0.50;;;2.50;99.90;;;;;;4990447;28;20206;-85
2020/12/31 03:49:19;;;;;;;0.50;0.50;;;2.50;99.90;;;;;;4990612;28;20630;-85
2020/12/31 03:51:45;;;;;;;0.50;0.50;;;2.40;99.90;;;;;;4991205;28;20209;-85
2020/12/31 03:54:11;;;;;;;0.50;0.50;;;3.50;99.90;;;;;;4990367;28;20210;-85
2020/12/31 03:56:48;;;;;;;0.50;0.50;;;2.40;99.90;;;;;;4990779;28;20238;-85
2020/12/31 03:59:14;;;;;;;0.50;0.50;;;2.40;99.90;;;;;;4990304;28;20206;-85
2020/12/31 04:01:40;;;;;;;0.50;0.50;;;2.70;99.90;;;;;;4990650;28;20229;-85
2020/12/31 04:04:06;;;;;;;0.50;0.50;;;2.30;99.90;;;;;;4989923;28;20210;-86
2020/12/31 04:06:33;;;;;;;0.50;0.50;;;2.30;99.90;;;;;;4990755;28;20206;-85
2020/12/31 04:08:59;;;;;;;0.50;0.50;;;2.20;99.90;;;;;;4990043;28;20256;-86
2020/12/31 04:11:28;;;;;;;0.60;0.60;;;2.20;99.90;;;;;;4989913;28;20210;-86
2020/12/31 04:13:55;;;;;;;0.50;0.50;;;2.10;99.90;;;;;;4990304;28;20210;-86
2020/12/31 04:16:21;;;;;;;0.50;0.50;;;2.00;99.90;;;;;;4990006;28;20233;-86
2020/12/31 04:18:49;;;;;;;0.50;0.50;;;1.90;99.90;;;;;;4989788;28;20522;-86
2020/12/31 04:21:20;;;;;;;0.50;0.50;;;2.80;99.90;;;;;;4990487;28;20206;-85
2020/12/31 04:23:48;;;;;;;0.50;0.50;;;1.90;99.90;;;;;;4990308;28;20293;-85
2020/12/31 04:26:14;;;;;;;0.52;0.52;;;1.80;99.90;;;;;;4989982;28;20211;-85
2020/12/31 04:28:40;;;;;;;0.50;0.50;;;2.00;99.90;;;;;;4990295;28;20276;-85
2020/12/31 04:31:06;;;;;;;0.50;0.50;;;1.80;99.90;;;;;;4990252;28;20610;-85
2020/12/31 04:33:32;;;;;;;0.50;0.50;;;1.80;99.90;;;;;;4989806;28;20257;-85
2020/12/31 04:35:58;;;;;;;0.50;0.50;;;1.80;99.90;;;;;;4989517;28;20227;-85
2020/12/31 04:38:24;;;;;;;0.50;0.50;;;1.70;99.90;;;;;;4989770;28;20634;-85
2020/12/31 04:40:51;;;;;;;0.50;0.50;;;1.60;99.90;;;;;;4989959;28;20229;-86
2020/12/31 04:43:18;;;;;;;0.50;0.50;;;1.60;99.90;;;;;;4990155;28;20206;-85
2020/12/31 04:45:44;;;;;;;0.50;0.50;;;1.60;99.90;;;;;;4989812;28;20487;-85
2020/12/31 04:48:18;;;;;;;0.40;0.40;;;1.60;99.90;;;;;;4989972;28;20210;-85
2020/12/31 04:50:48;;;;;;;0.50;0.50;;;1.60;99.90;;;;;;4990288;28;20225;-85
2020/12/31 04:53:15;;;;;;;0.50;0.50;;;1.50;99.90;;;;;;4990008;28;20205;-86
2020/12/31 04:55:43;;;;;;;0.55;0.55;;;1.50;99.90;;;;;;4989377;28;20214;-85
2020/12/31 04:58:11;;;;;;;0.50;0.50;;;1.50;99.90;;;;;;4989447;28;20207;-85
2020/12/31 05:00:38;;;;;;;0.50;0.50;;;1.50;99.90;;;;;;4990035;28;20206;-85
2020/12/31 05:03:05;;;;;;;0.50;0.50;;;1.40;99.90;;;;;;4989287;28;20214;-86
2020/12/31 05:05:34;;;;;;;0.50;0.50;;;1.40;99.90;;;;;;4989691;28;20271;-86
2020/12/31 05:08:02;;;;;;;0.50;0.50;;;1.40;99.90;;;;;;4989943;28;20198;-86
2020/12/31 05:10:28;;;;;;;0.50;0.50;;;1.40;99.90;;;;;;4989977;28;20206;-85
2020/12/31 05:12:58;;;;;;;0.50;0.50;;;1.40;99.90;;;;;;4989383;28;20509;-86
2020/12/31 05:15:35;;;;;;;0.40;0.40;;;1.40;99.90;;;;;;4989937;28;20214;-85
2020/12/31 05:18:19;;;;;;;0.50;0.50;;;1.30;99.90;;;;;;4988932;28;20251;-85
2020/12/31 05:20:49;;;;;;;0.50;0.50;;;1.30;99.90;;;;;;4989724;28;20210;-85
2020/12/31 05:23:16;;;;;;;0.50;0.50;;;1.30;99.90;;;;;;4989512;28;20214;-85
2020/12/31 05:25:43;;;;;;;0.50;0.50;;;1.30;99.90;;;;;;4989281;28;20202;-85
2020/12/31 05:28:23;;;;;;;0.50;0.50;;;1.30;99.90;;;;;;4989714;28;20217;-85
2020/12/31 05:30:51;;;;;;;0.50;0.50;;;1.30;99.90;;;;;;4989201;28;20201;-85
2020/12/31 05:33:25;;;;;;;0.50;0.50;;;1.20;99.90;;;;;;4989247;28;20214;-85
2020/12/31 05:35:51;;;;;;;0.50;0.50;;;1.20;99.90;;;;;;4989168;28;20298;-85
2020/12/31 05:38:21;;;;;;;0.50;0.50;;;1.20;99.90;;;;;;4989940;28;20238;-85
2020/12/31 05:40:57;;;;;;;0.50;0.50;;;1.20;99.90;;;;;;4989401;28;20206;-85
2020/12/31 05:43:23;;;;;;;0.50;0.50;;;1.20;99.90;;;;;;4989781;28;20625;-85
2020/12/31 05:46:03;;;;;;;0.50;0.50;;;1.10;99.90;;;;;;4989159;28;20727;-85
2020/12/31 05:48:29;;;;;;;0.50;0.50;;;1.10;99.90;;;;;;4991829;28;20257;-85
2020/12/31 05:50:56;;;;;;;0.50;0.50;;;1.10;99.90;;;;;;4992684;28;20217;-85
2020/12/31 05:53:23;;;;;;;0.50;0.50;;;1.20;99.90;;;;;;4993274;28;20209;-85
2020/12/31 05:55:54;;;;;;;0.50;0.50;;;1.20;99.90;;;;;;4992925;28;20202;-85
2020/12/31 05:58:24;;;;;;;0.50;0.50;;;1.30;99.90;;;;;;4992702;28;20319;-85
2020/12/31 06:01:01;;;;;;;0.50;0.50;;;1.30;99.90;;;;;;4992375;28;20206;-85
2020/12/31 06:03:36;;;;;;;0.50;0.50;;;1.40;99.90;;;;;;4992631;28;20292;-85
2020/12/31 06:06:05;;;;;;;0.50;0.50;;;1.40;99.90;;;;;;4992747;28;20284;-85
2020/12/31 06:08:32;;;;;;;0.50;0.50;;;1.40;99.90;;;;;;4992295;28;20213;-85
2020/12/31 06:11:02;;;;;;;0.50;0.50;;;1.50;99.90;;;;;;4992140;28;20677;-85
2020/12/31 06:13:37;;;;;;;0.50;0.50;;;1.50;99.90;;;;;;4992837;28;20221;-85
2020/12/31 06:16:05;;;;;;;0.50;0.50;;;1.60;99.90;;;;;;4992442;28;20729;-85
2020/12/31 06:18:33;;;;;;;0.50;0.50;;;1.60;99.90;;;;;;4992742;28;20234;-85
2020/12/31 06:21:01;;;;;;;0.50;0.50;;;1.60;99.90;;;;;;4992187;28;20696;-85
2020/12/31 06:23:36;;;;;;;0.50;0.50;;;1.70;99.90;;;;;;4991857;28;20297;-85
2020/12/31 06:26:11;;;;;;;0.50;0.50;;;1.60;99.90;;;;;;4991805;28;20297;-85
2020/12/31 06:28:39;;;;;;;0.50;0.50;;;1.70;99.90;;;;;;4992003;28;20217;-85
2020/12/31 06:31:06;;;;;;;0.50;0.50;;;1.70;99.90;;;;;;4992007;28;20203;-85
2020/12/31 06:33:40;;;;;;;0.50;0.50;;;1.70;99.90;;;;;;4992473;28;20289;-85
2020/12/31 06:36:06;;;;;;;0.50;0.50;;;1.70;99.90;;;;;;4992099;28;20202;-85
2020/12/31 06:38:34;;;;;;;0.50;0.50;;;1.80;99.90;;;;;;4991800;28;20214;-85
2020/12/31 06:41:01;;;;;;;0.50;0.50;;;1.70;99.90;;;;;;4992117;28;20217;-85
2020/12/31 06:43:38;;;;;;;0.50;0.50;;;1.70;99.90;;;;;;4992301;28;20206;-85
2020/12/31 06:46:19;;;;;;;0.50;0.50;;;1.70;99.90;;;;;;4992116;28;20670;-85
2020/12/31 06:48:51;;;;;;;0.50;0.50;;;1.70;99.90;;;;;;4991572;28;20210;-85
2020/12/31 06:51:24;;;;;;;0.50;0.50;;;1.70;99.90;;;;;;4991542;28;20641;-85
2020/12/31 06:53:50;;;;;;;0.50;0.50;;;1.70;99.90;;;;;;4991791;28;20241;-85
2020/12/31 06:56:16;;;;;;;0.50;0.50;;;1.70;99.90;;;;;;4991673;28;20280;-85
2020/12/31 06:58:45;;;;;;;0.50;0.50;;;1.60;99.90;;;;;;4991408;28;20199;-85
2020/12/31 07:01:26;;;;;;;0.50;0.50;;;1.70;99.90;;;;;;4991215;28;20696;-86
2020/12/31 07:03:52;;;;;;;0.50;0.50;;;1.60;99.90;;;;;;4991656;28;20657;-85
2020/12/31 07:06:32;;;;;;;0.50;0.50;;;1.60;99.90;;;;;;4991899;28;20619;-85
2020/12/31 07:09:01;;;;;;;0.50;0.50;;;1.60;99.90;;;;;;4992084;28;20292;-85
2020/12/31 07:11:35;;;;;;;0.50;0.50;;;1.60;99.90;;;;;;4991695;28;20690;-85
2020/12/31 07:14:03;;;;;;;0.50;0.50;;;1.60;99.90;;;;;;4991508;28;20670;-85
2020/12/31 07:16:55;;;;;;;0.50;0.50;;;1.60;99.90;;;;;;4991104;28;20261;-85
2020/12/31 07:19:21;;;;;;;0.50;0.50;;;1.60;99.90;;;;;;4991232;28;20207;-84
2020/12/31 07:21:49;;;;;;;0.50;0.50;;;1.60;99.90;;;;;;4991473;28;20206;-85
2020/12/31 07:24:23;;;;;;;0.50;0.50;;;1.50;99.90;;;;;;4991531;28;20785;-85
2020/12/31 07:26:51;;;;;;;0.50;0.50;;;1.50;99.90;;;;;;4992516;28;20214;-85
2020/12/31 07:29:24;;;;;;;0.50;0.50;;;1.40;99.90;;;;;;4991828;28;20205;-85
2020/12/31 07:31:51;;;;;;;0.50;0.50;;;1.40;99.90;;;;;;4991386;28;20209;-86
2020/12/31 07:34:22;;;;;;;0.50;0.50;;;1.30;99.90;;;;;;4990777;28;20213;-86
2020/12/31 07:37:02;;;;;;;0.50;0.50;;;1.30;99.90;;;;;;4990930;28;20305;-85
2020/12/31 07:39:29;;;;;;;0.60;0.60;;;1.30;99.90;;;;;;4990982;28;20214;-85
2020/12/31 07:42:12;;;;;;;0.50;0.50;;;1.30;99.90;;;;;;4991104;28;20213;-85
2020/12/31 07:44:54;;;;;;;0.50;0.50;;;1.20;99.90;;;;;;4991168;28;20581;-85
2020/12/31 07:47:23;;;;;;;0.50;0.50;;;1.20;99.90;;;;;;4990520;28;20206;-85
2020/12/31 07:49:51;;;;;;;0.50;0.50;;;1.20;99.90;;;;;;4991224;28;20210;-85
2020/12/31 07:52:21;;;;;;;0.50;0.50;;;1.20;99.90;;;;;;4990859;28;20229;-85
2020/12/31 07:54:47;;;;;;;0.60;0.60;;;1.20;99.90;;;;;;4990525;28;20260;-85
2020/12/31 07:57:14;;;;;;;0.50;0.50;;;1.20;99.90;;;;;;4990345;28;20234;-85
2020/12/31 07:59:42;;;;;;;0.50;0.50;;;1.20;99.90;;;;;;4990850;28;20577;-85
2020/12/31 08:02:09;;;;;;;0.50;0.50;;;1.20;99.90;;;;;;4990194;28;20206;-85
2020/12/31 08:04:36;;;;;;;0.50;0.50;;;1.20;99.90;;;;;;4990359;28;20239;-86
2020/12/31 08:07:14;;;;;;;0.50;0.50;;;1.30;99.90;;;;;;4990450;28;20207;-86
2020/12/31 08:09:41;;;;;;;0.50;0.50;;;1.30;99.90;;;;;;4989928;28;20661;-85
2020/12/31 08:12:12;;;;;;;0.50;0.50;;;1.30;99.90;;;;;;4990164;28;20657;-85
2020/12/31 08:14:42;;;;;;;0.50;0.50;;;1.20;99.90;;;;;;4990382;28;20198;-85
2020/12/31 08:17:09;;;;;;;0.50;0.50;;;1.40;99.90;;;;;;4989668;28;20234;-86
2020/12/31 08:19:37;;;;;;;0.50;0.50;;;1.40;99.90;;;;;;4990416;28;20609;-85
2020/12/31 08:22:22;;;;;;;0.50;0.50;;;1.50;99.90;;;;;;4990417;28;20209;-86
2020/12/31 08:24:56;;;;;;;0.50;0.50;;;1.50;99.90;;;;;;4989822;28;20775;-86
2020/12/31 08:27:24;;;;;;;0.60;0.60;;;1.50;99.90;;;;;;4989914;28;20670;-85
2020/12/31 08:29:51;;;;;;;0.50;0.50;;;1.50;99.90;;;;;;4989942;28;20302;-86
2020/12/31 08:32:26;;;;;;;0.50;0.50;;;1.50;99.90;;;;;;4990119;28;20232;-86
2020/12/31 08:34:57;;;;;;;0.50;0.50;;;1.50;99.90;;;;;;4990185;28;20664;-86
2020/12/31 08:37:26;;;;;;;0.50;0.50;;;1.50;99.90;;;;;;4989958;28;20226;-86
2020/12/31 08:39:53;;;;;;;0.50;0.50;;;1.60;99.90;;;;;;4990070;28;20206;-86
2020/12/31 08:42:21;;;;;;;0.50;0.50;;;1.60;99.90;;;;;;4989482;28;20829;-86
2020/12/31 08:44:55;;;;;;;0.50;0.50;;;1.60;99.90;;;;;;4990102;28;20214;-86
2020/12/31 08:47:24;;;;;;;0.50;0.50;;;1.60;99.90;;;;;;4989824;28;20206;-85
2020/12/31 08:49:55;;;;;;;0.60;0.60;;;1.70;99.90;;;;;;4990297;28;20210;-85
2020/12/31 08:52:26;;;;;;;0.50;0.50;;;1.70;99.90;;;;;;4990154;28;20209;-86
2020/12/31 08:55:14;;;;;;;0.50;0.50;;;2.40;99.90;;;;;;4990205;28;20202;-86
2020/12/31 08:57:40;;;;;;;0.50;0.50;;;2.20;99.90;;;;;;4989354;28;20707;-86
2020/12/31 09:00:09;;;;;;;0.50;0.50;;;1.80;99.90;;;;;;4989662;28;20213;-85
2020/12/31 09:02:35;;;;;;;0.50;0.50;;;1.80;99.90;;;;;;4990096;28;20206;-85
2020/12/31 09:05:16;;;;;;;0.50;0.50;;;1.80;99.90;;;;;;4990085;28;20280;-86
2020/12/31 09:07:43;;;;;;;0.60;0.60;;;1.90;99.90;;;;;;4989991;28;20265;-86
2020/12/31 09:10:18;;;;;;;0.50;0.50;;;1.90;99.90;;;;;;4989733;28;20213;-86
2020/12/31 09:12:45;;;;;;;0.50;0.50;;;1.90;99.90;;;;;;4990022;28;20198;-85
2020/12/31 09:15:24;;;;;;;0.50;0.50;;;1.90;99.90;;;;;;4990010;28;20558;-85
2020/12/31 09:17:51;;;;;;;0.50;0.50;;;2.00;99.90;;;;;;4990193;28;20218;-85
2020/12/31 09:20:20;;;;;;;0.50;0.50;;;2.00;99.90;;;;;;4989685;28;20477;-86
2020/12/31 09:22:47;;;;;;;0.50;0.50;;;2.00;99.90;;;;;;4993120;28;20214;-86
2020/12/31 09:25:14;;;;;;;0.50;0.50;;;2.10;99.90;;;;;;4993932;28;20277;-85
2020/12/31 09:27:41;;;;;;;0.50;0.50;;;2.10;99.90;;;;;;4993382;28;20217;-85
2020/12/31 09:30:10;;;;;;;0.50;0.50;;;2.10;99.90;;;;;;4993804;28;20297;-85
2020/12/31 09:32:36;;;;;;;0.50;0.50;;;2.20;99.90;;;;;;4993613;28;20214;-85
2020/12/31 09:35:03;;;;;;;0.50;0.50;;;2.20;99.90;;;;;;4993213;28;20213;-85
2020/12/31 09:37:30;;;;;;;0.50;0.50;;;2.30;99.90;;;;;;4993505;28;20233;-85
2020/12/31 09:39:57;;;;;;;0.60;0.60;;;2.30;99.90;;;;;;4993632;28;20202;-85
2020/12/31 09:42:23;;;;;;;0.60;0.60;;;2.30;99.90;;;;;;4993631;28;20308;-85
2020/12/31 09:44:50;;;;;;;0.50;0.50;;;2.40;99.90;;;;;;4995214;28;20206;-85
2020/12/31 09:47:16;;;;;;;0.50;0.50;;;2.40;99.90;;;;;;4994658;28;20560;-85
2020/12/31 09:49:42;;;;;;;0.50;0.50;;;2.40;99.90;;;;;;4994759;28;20285;-85
2020/12/31 09:52:08;;;;;;;0.50;0.50;;;2.40;99.90;;;;;;4995200;28;20625;-85
2020/12/31 09:54:34;;;;;;;0.50;0.50;;;2.40;99.90;;;;;;4994814;28;20206;-86
2020/12/31 09:57:01;;;;;;;0.60;0.60;;;2.50;99.90;;;;;;4994953;28;20237;-86
2020/12/31 09:59:27;;;;;;;0.50;0.50;;;2.50;99.90;;;;;;4994430;28;20202;-86
2020/12/31 10:01:53;;;;;;;0.50;0.50;;;2.50;99.90;;;;;;4994628;28;20681;-86
2020/12/31 10:04:19;;;;;;;0.50;0.50;;;2.50;99.90;;;;;;4994802;28;20264;-85
2020/12/31 10:06:46;;;;;;;0.50;0.50;;;2.50;99.90;;;;;;4994405;28;20701;-85
2020/12/31 10:09:14;;;;;;;0.57;0.57;;;2.60;99.90;;;;;;4994727;28;20206;-86
2020/12/31 10:11:45;;;;;;;0.55;0.55;;;2.60;99.90;;;;;;4994534;28;20658;-85
2020/12/31 10:14:12;;;;;;;0.50;0.50;;;2.60;99.90;;;;;;4994528;28;20673;-85
2020/12/31 10:16:40;;;;;;;0.50;0.50;;;2.60;99.90;;;;;;4993979;28;20790;-85
2020/12/31 10:19:09;;;;;;;0.50;0.50;;;2.60;99.90;;;;;;4994422;28;20301;-85
2020/12/31 10:21:35;;;;;;;0.50;0.50;;;2.60;99.90;;;;;;4994116;28;20207;-85
2020/12/31 10:24:02;;;;;;;0.50;0.50;;;2.70;99.90;;;;;;4993946;28;20234;-85
2020/12/31 10:26:28;;;;;;;0.60;0.60;;;2.70;99.90;;;;;;4994213;28;20735;-85
2020/12/31 10:28:54;;;;;;;0.50;0.50;;;2.70;99.90;;;;;;4993919;28;20206;-85
2020/12/31 10:31:21;;;;;;;0.50;0.50;;;2.80;99.90;;;;;;4994070;28;20210;-85
2020/12/31 10:33:47;;;;;;;0.50;0.50;;;2.70;99.90;;;;;;4993377;28;20214;-85
2020/12/31 10:36:13;;;;;;;0.50;0.50;;;2.80;99.90;;;;;;4993781;28;20205;-85
2020/12/31 10:38:40;;;;;;;0.50;0.50;;;2.80;99.90;;;;;;4994256;28;20297;-85
2020/12/31 10:41:07;;;;;;;0.50;0.50;;;2.90;99.90;;;;;;4993660;28;20210;-85
2020/12/31 10:43:33;;;;;;;0.50;0.50;;;2.90;99.90;;;;;;4992870;28;20198;-86
2020/12/31 10:45:59;;;;;;;0.50;0.50;;;2.90;99.90;;;;;;4993519;28;20198;-84
2020/12/31 10:48:26;;;;;;;0.60;0.60;;;2.90;99.90;;;;;;4993223;28;20202;-85
2020/12/31 10:50:53;;;;;;;0.50;0.50;;;3.10;99.90;;;;;;4993950;28;20202;-85
2020/12/31 10:53:19;;;;;;;0.50;0.50;;;3.00;99.90;;;;;;4993879;28;20210;-85
2020/12/31 10:55:45;;;;;;;0.50;0.50;;;3.10;99.90;;;;;;4993691;28;20203;-85
2020/12/31 10:58:11;;;;;;;0.60;0.60;;;3.00;99.90;;;;;;4993700;28;20585;-85
2020/12/31 11:00:39;;;;;;;0.60;0.60;;;3.10;99.90;;;;;;4993413;28;20218;-85
2020/12/31 11:03:05;;;;;;;0.50;0.50;;;3.10;99.90;;;;;;4992986;28;20253;-85
2020/12/31 11:05:32;;;;;;;0.55;0.55;;;3.10;99.90;;;;;;4993851;28;20627;-85
2020/12/31 11:07:58;;;;;;;0.60;0.60;;;3.10;99.90;;;;;;4992613;28;20195;-85
2020/12/31 11:10:24;;;;;;;0.50;0.50;;;3.20;99.90;;;;;;4992968;28;20253;-85
2020/12/31 11:12:50;;;;;;;0.50;0.50;;;3.20;99.90;;;;;;4993413;28;20218;-86
2020/12/31 11:15:16;;;;;;;0.50;0.50;;;3.20;99.90;;;;;;4993002;28;20210;-85
2020/12/31 11:17:46;;;;;;;0.50;0.50;;;3.20;99.90;;;;;;4992213;28;20280;-86
2020/12/31 11:20:15;;;;;;;0.50;0.50;;;3.20;99.90;;;;;;4992123;28;20253;-85
2020/12/31 11:22:42;;;;;;;0.50;0.50;;;3.30;99.90;;;;;;4992032;28;20370;-85
2020/12/31 11:25:09;;;;;;;0.50;0.50;;;3.30;99.90;;;;;;4992609;28;20297;-85
2020/12/31 11:27:35;;;;;;;0.50;0.50;;;3.30;99.90;;;;;;4992080;28;20202;-85
2020/12/31 11:30:01;;;;;;;0.50;0.50;;;3.30;99.90;;;;;;4991987;28;20206;-86
2020/12/31 11:32:27;;;;;;;0.50;0.50;;;3.30;99.90;;;;;;4993048;28;20268;-83
2020/12/31 11:34:53;;;;;;;0.50;0.50;;;3.20;99.90;;;;;;4992232;28;20207;-85
2020/12/31 11:37:19;;;;;;;0.60;0.60;;;3.30;99.90;;;;;;4992182;28;20222;-84
2020/12/31 11:39:46;;;;;;;0.50;0.50;;;3.30;99.90;;;;;;4992337;28;20209;-84
2020/12/31 11:42:12;;;;;;;0.50;0.50;;;3.30;99.90;;;;;;4992573;28;20218;-85
2020/12/31 11:44:39;;;;;;;0.60;0.60;;;3.20;99.90;;;;;;4992362;28;20217;-83
2020/12/31 11:47:05;;;;;;;0.50;0.50;;;3.10;99.90;;;;;;4992121;28;20206;-84
2020/12/31 11:49:31;;;;;;;0.60;0.60;;;3.30;99.90;;;;;;4992113;28;20203;-84
2020/12/31 11:51:59;;;;;;;0.50;0.50;;;3.20;99.90;;;;;;4992051;28;20208;-86
2020/12/31 11:54:26;;;;;;;0.50;0.50;;;3.20;99.90;;;;;;4989833;28;20202;-86
2020/12/31 11:56:53;;;;;;;0.50;0.50;;;3.20;99.90;;;;;;4992416;28;20234;-86
2020/12/31 11:59:19;;;;;;;0.60;0.60;;;3.20;99.90;;;;;;4992027;28;20250;-86
2020/12/31 12:01:50;;;;;;;0.60;0.60;;;3.20;99.90;;;;;;4988883;28;20194;-86
2020/12/31 12:04:17;;;;;;;0.50;0.50;;;3.20;99.90;;;;;;4991525;28;20198;-86
2020/12/31 12:06:48;;;;;;;0.50;0.50;;;3.10;99.90;;;;;;4990954;28;20248;-87
2020/12/31 12:09:14;;;;;;;0.50;0.50;;;3.10;99.90;;;;;;4985111;28;20204;-85
2020/12/31 12:11:40;;;;;;;0.50;0.50;;;3.10;99.90;;;;;;4991337;28;20378;-85
2020/12/31 12:14:08;;;;;;;0.50;0.50;;;3.10;99.90;;;;;;4988684;28;20217;-86
2020/12/31 12:16:35;;;;;;;0.50;0.50;;;3.10;99.90;;;;;;4988600;28;20230;-85
2020/12/31 12:19:01;;;;;;;0.50;0.50;;;3.10;99.90;;;;;;4989919;28;20202;-85
2020/12/31 12:21:27;;;;;;;0.50;0.50;;;3.00;99.90;;;;;;4987106;28;20202;-85
2020/12/31 12:23:53;;;;;;;0.50;0.50;;;3.00;99.90;;;;;;4989600;28;20241;-86
2020/12/31 12:26:20;;;;;;;0.50;0.50;;;3.00;99.90;;;;;;4989662;28;20548;-86
2020/12/31 12:28:46;;;;;;;0.50;0.50;;;3.00;99.90;;;;;;4988988;28;20268;-84
2020/12/31 12:31:13;;;;;;;0.50;0.50;;;2.90;99.90;;;;;;4990411;28;20198;-85
2020/12/31 12:33:43;;;;;;;0.50;0.50;;;3.10;99.90;;;;;;4990920;28;20202;-85
2020/12/31 12:36:14;;;;;;;0.50;0.50;;;4.00;99.90;;;;;;4989325;28;20204;-85
2020/12/31 12:38:40;;;;;;;0.50;0.50;;;3.10;99.90;;;;;;4992215;28;20234;-85
2020/12/31 12:41:06;;;;;;;0.50;0.50;;;3.00;99.90;;;;;;4991773;28;20268;-85
2020/12/31 12:43:32;;;;;;;0.50;0.50;;;3.00;99.90;;;;;;4991685;28;20202;-86
2020/12/31 12:45:58;;;;;;;0.60;0.60;;;2.90;99.90;;;;;;4990840;28;20198;-85
2020/12/31 12:48:25;;;;;;;0.50;0.50;;;3.10;99.90;;;;;;4990379;28;20194;-86
2020/12/31 12:50:51;;;;;;;0.50;0.50;;;3.00;99.90;;;;;;4990816;28;20669;-85
2020/12/31 12:53:18;;;;;;;0.50;0.50;;;3.00;99.90;;;;;;4991325;28;20214;-85
2020/12/31 12:55:46;;;;;;;0.50;0.50;;;2.80;99.90;;;;;;4991735;28;20267;-85
2020/12/31 12:58:12;;;;;;;0.50;0.50;;;3.00;99.90;;;;;;4993125;28;20717;-85
2020/12/31 13:00:39;;;;;;;0.55;0.55;;;3.00;99.90;;;;;;4994848;28;20209;-85
2020/12/31 13:03:05;;;;;;;0.50;0.50;;;3.00;99.90;;;;;;4993900;28;20289;-85